createdAt,value
2024-02-22T00:00:00.743Z,0.95
2024-02-22T00:15:00.677Z,0.85
2024-02-22T00:30:00.683Z,0.95
2024-02-22T00:45:00.700Z,0.9
2024-02-22T01:00:01.011Z,1.0
2024-02-22T01:15:00.729Z,0.95
2024-02-22T01:30:00.662Z,1.0
2024-02-22T01:45:00.679Z,0.85
2024-02-22T02:00:00.672Z,0.75
2024-02-22T02:15:00.747Z,0.95
2024-02-22T02:30:00.730Z,0.9
2024-02-22T02:45:00.726Z,0.9
2024-02-22T03:00:00.747Z,0.95
2024-02-22T03:15:00.683Z,1.1
2024-02-22T03:30:00.742Z,1.0
2024-02-22T03:45:00.688Z,1.3
2024-02-22T04:00:00.689Z,1.1
2024-02-22T04:15:00.692Z,1.2
2024-02-22T04:30:00.727Z,1.5
2024-02-22T04:45:00.759Z,1.65
2024-02-22T05:00:00.772Z,1.8
2024-02-22T05:15:00.673Z,1.7
2024-02-22T05:30:00.707Z,1.75
2024-02-22T05:45:00.810Z,1.55
2024-02-22T06:00:00.751Z,2.15
2024-02-22T06:15:00.685Z,1.8
2024-02-22T06:30:00.689Z,1.9
2024-02-22T06:45:00.703Z,2.0
2024-02-22T07:00:00.688Z,2.4
2024-02-22T07:15:00.768Z,3.25
2024-02-22T07:30:00.746Z,4.65
2024-02-22T07:45:00.722Z,4.8
2024-02-22T08:00:00.772Z,5.1
2024-02-22T08:15:00.696Z,6.45
2024-02-22T08:30:00.816Z,7.1
2024-02-22T08:45:00.713Z,7.5
2024-02-22T09:00:00.673Z,8.0
2024-02-22T09:15:00.682Z,8.55
2024-02-22T09:30:00.699Z,8.75
2024-02-22T09:45:00.755Z,9.0
2024-02-22T10:00:00.705Z,9.25
2024-02-22T10:15:01.092Z,9.05
2024-02-22T10:30:00.686Z,8.5
2024-02-22T10:45:00.711Z,7.95
2024-02-22T11:00:00.750Z,7.7
2024-02-22T11:15:00.699Z,7.55
2024-02-22T11:30:00.694Z,7.95
2024-02-22T11:45:00.685Z,7.75
2024-02-22T12:00:00.691Z,7.6
2024-02-22T12:15:00.766Z,7.4
2024-02-22T12:30:00.729Z,7.2
2024-02-22T12:45:00.677Z,7.2
2024-02-22T13:00:00.672Z,7.65
2024-02-22T13:15:00.710Z,8.25
2024-02-22T13:30:00.800Z,9.15
2024-02-22T13:45:00.739Z,9.45
2024-02-22T14:00:00.777Z,9.0
2024-02-22T14:15:00.729Z,9.15
2024-02-22T14:30:00.767Z,9.1
2024-02-22T14:45:00.793Z,9.15
2024-02-22T15:00:01.043Z,9.25
2024-02-22T15:15:00.708Z,9.2
2024-02-22T15:30:00.725Z,8.95
2024-02-22T15:45:00.707Z,8.5
2024-02-22T16:00:00.771Z,8.5
2024-02-22T16:15:00.780Z,8.25
2024-02-22T16:30:00.762Z,8.55
2024-02-22T16:45:00.698Z,8.15
2024-02-22T17:00:00.720Z,7.75
2024-02-22T17:15:00.777Z,7.35
2024-02-22T17:30:00.722Z,7.15
2024-02-22T17:45:00.704Z,6.85
2024-02-22T18:00:00.695Z,6.7
2024-02-22T18:15:00.786Z,7.5
2024-02-22T18:30:00.726Z,7.8
2024-02-22T18:45:02.751Z,8.0
2024-02-22T19:00:00.695Z,8.0
2024-02-22T19:15:00.779Z,8.1
2024-02-22T19:30:00.677Z,8.3
2024-02-22T19:45:00.726Z,8.35
2024-02-22T20:00:00.699Z,8.6
2024-02-22T20:15:00.789Z,8.6
2024-02-22T20:30:00.708Z,8.35
2024-02-22T20:45:00.831Z,7.95
2024-02-22T21:00:00.690Z,7.95
2024-02-22T21:15:00.892Z,8.1
2024-02-22T21:30:00.741Z,8.0
2024-02-22T21:45:00.774Z,8.15
2024-02-22T22:00:00.693Z,8.3
2024-02-22T22:15:00.751Z,8.35
2024-02-22T22:30:00.672Z,8.35
2024-02-22T22:45:00.697Z,8.5
2024-02-22T23:00:00.754Z,8.6
2024-02-22T23:15:00.757Z,8.65
2024-02-22T23:30:00.684Z,8.7
2024-02-22T23:45:00.692Z,8.7
